sensor_id;sensor_type;location;lat;lon;timestamp;pressure;altitude;pressure_sealevel;temperature;humidity
56456;BME280;42354;53.218;6.564;2023-05-25T00:00:32;46977.03;;;-142.92;100.00
56456;BME280;42354;53.218;6.564;2023-05-25T00:02:57;46987.28;;;-142.92;100.00
56456;BME280;42354;53.218;6.564;2023-05-25T00:05:23;46987.28;;;-142.92;100.00
56456;BME280;42354;53.218;6.564;2023-05-25T00:07:52;46977.03;;;-142.92;100.00
56456;BME280;42354;53.218;6.564;2023-05-25T00:10:17;46983.19;;;-142.92;100.00
56456;BME280;42354;53.218;6.564;2023-05-25T00:12:43;46974.97;;;-142.92;100.00
56456;BME280;42354;53.218;6.564;2023-05-25T00:15:10;46983.19;;;-142.92;100.00
56456;BME280;42354;53.218;6.564;2023-05-25T00:17:35;46970.88;;;-142.92;100.00
56456;BME280;42354;53.218;6.564;2023-05-25T00:20:02;46974.97;;;-142.92;100.00
56456;BME280;42354;53.218;6.564;2023-05-25T00:22:42;46991.38;;;-142.92;100.00
56456;BME280;42354;53.218;6.564;2023-05-25T00:25:09;46997.53;;;-142.92;100.00
56456;BME280;42354;53.218;6.564;2023-05-25T00:27:35;46974.97;;;-142.92;100.00
56456;BME280;42354;53.218;6.564;2023-05-25T00:30:00;46974.97;;;-142.92;100.00
56456;BME280;42354;53.218;6.564;2023-05-25T00:32:26;46977.03;;;-142.92;100.00
56456;BME280;42354;53.218;6.564;2023-05-25T00:34:52;46985.22;;;-142.92;100.00
56456;BME280;42354;53.218;6.564;2023-05-25T00:37:18;46966.75;;;-142.92;100.00
56456;BME280;42354;53.218;6.564;2023-05-25T00:39:44;46979.06;;;-142.92;100.00
56456;BME280;42354;53.218;6.564;2023-05-25T00:42:09;46985.22;;;-142.92;100.00
56456;BME280;42354;53.218;6.564;2023-05-25T00:44:35;46972.91;;;-142.92;100.00
56456;BME280;42354;53.218;6.564;2023-05-25T00:47:00;46983.19;;;-142.92;100.00
56456;BME280;42354;53.218;6.564;2023-05-25T00:49:30;46960.59;;;-142.92;100.00
56456;BME280;42354;53.218;6.564;2023-05-25T00:51:56;46979.06;;;-142.92;100.00
56456;BME280;42354;53.218;6.564;2023-05-25T00:54:22;46983.19;;;-142.92;100.00
56456;BME280;42354;53.218;6.564;2023-05-25T00:56:55;46970.88;;;-142.92;100.00
56456;BME280;42354;53.218;6.564;2023-05-25T00:59:30;46991.38;;;-142.92;100.00
56456;BME280;42354;53.218;6.564;2023-05-25T01:02:02;46985.22;;;-142.92;100.00
56456;BME280;42354;53.218;6.564;2023-05-25T01:04:30;46970.88;;;-142.92;100.00
56456;BME280;42354;53.218;6.564;2023-05-25T01:06:59;46987.28;;;-142.92;100.00
56456;BME280;42354;53.218;6.564;2023-05-25T01:09:27;46970.88;;;-142.92;100.00
56456;BME280;42354;53.218;6.564;2023-05-25T01:11:56;46966.75;;;-142.92;100.00
56456;BME280;42354;53.218;6.564;2023-05-25T01:14:24;46983.19;;;-142.92;100.00
56456;BME280;42354;53.218;6.564;2023-05-25T01:16:51;46962.66;;;-142.92;100.00
56456;BME280;42354;53.218;6.564;2023-05-25T01:19:17;46983.19;;;-142.92;100.00
56456;BME280;42354;53.218;6.564;2023-05-25T01:24:30;47005.75;;;-142.92;100.00
56456;BME280;42354;53.218;6.564;2023-05-25T01:27:16;46966.75;;;-142.92;100.00
56456;BME280;42354;53.218;6.564;2023-05-25T01:29:48;46991.38;;;-142.92;100.00
56456;BME280;42354;53.218;6.564;2023-05-25T01:32:16;46985.22;;;-142.92;100.00
56456;BME280;42354;53.218;6.564;2023-05-25T01:34:42;46968.81;;;-142.92;100.00
56456;BME280;42354;53.218;6.564;2023-05-25T01:37:10;46991.38;;;-142.92;100.00
56456;BME280;42354;53.218;6.564;2023-05-25T01:39:38;46987.28;;;-142.92;100.00
56456;BME280;42354;53.218;6.564;2023-05-25T01:42:05;46983.19;;;-142.92;100.00
56456;BME280;42354;53.218;6.564;2023-05-25T01:44:31;46977.03;;;-142.92;100.00
56456;BME280;42354;53.218;6.564;2023-05-25T01:47:02;46987.28;;;-142.92;100.00
56456;BME280;42354;53.218;6.564;2023-05-25T01:49:31;47001.66;;;-142.92;100.00
56456;BME280;42354;53.218;6.564;2023-05-25T01:52:08;46991.38;;;-142.92;100.00
56456;BME280;42354;53.218;6.564;2023-05-25T01:54:41;46999.59;;;-142.92;100.00
56456;BME280;42354;53.218;6.564;2023-05-25T01:57:11;46983.19;;;-142.92;100.00
56456;BME280;42354;53.218;6.564;2023-05-25T01:59:38;46997.53;;;-142.92;100.00
56456;BME280;42354;53.218;6.564;2023-05-25T02:02:06;46991.38;;;-142.92;100.00
56456;BME280;42354;53.218;6.564;2023-05-25T02:04:32;46972.91;;;-142.92;100.00
56456;BME280;42354;53.218;6.564;2023-05-25T02:06:58;46987.28;;;-142.92;100.00
56456;BME280;42354;53.218;6.564;2023-05-25T02:09:23;46987.28;;;-142.92;100.00
56456;BME280;42354;53.218;6.564;2023-05-25T02:11:48;46983.19;;;-142.92;100.00
56456;BME280;42354;53.218;6.564;2023-05-25T02:14:14;46995.50;;;-142.92;100.00
56456;BME280;42354;53.218;6.564;2023-05-25T02:16:40;46983.19;;;-142.92;100.00
56456;BME280;42354;53.218;6.564;2023-05-25T02:19:06;46983.19;;;-142.92;100.00
56456;BME280;42354;53.218;6.564;2023-05-25T02:21:33;46962.66;;;-142.92;100.00
56456;BME280;42354;53.218;6.564;2023-05-25T02:24:02;46972.91;;;-142.92;100.00
56456;BME280;42354;53.218;6.564;2023-05-25T02:26:27;46962.66;;;-142.92;100.00
56456;BME280;42354;53.218;6.564;2023-05-25T02:28:53;46991.38;;;-142.92;100.00
56456;BME280;42354;53.218;6.564;2023-05-25T02:31:18;46981.13;;;-142.92;100.00
56456;BME280;42354;53.218;6.564;2023-05-25T02:33:43;46987.28;;;-142.92;100.00
56456;BME280;42354;53.218;6.564;2023-05-25T02:36:09;46985.22;;;-142.92;100.00
56456;BME280;42354;53.218;6.564;2023-05-25T02:38:35;46987.28;;;-142.92;100.00
56456;BME280;42354;53.218;6.564;2023-05-25T02:41:00;47005.75;;;-142.92;100.00
56456;BME280;42354;53.218;6.564;2023-05-25T02:43:27;46974.97;;;-142.92;100.00
56456;BME280;42354;53.218;6.564;2023-05-25T02:45:52;46981.13;;;-142.92;100.00
56456;BME280;42354;53.218;6.564;2023-05-25T02:48:17;46974.97;;;-142.92;100.00
56456;BME280;42354;53.218;6.564;2023-05-25T02:50:43;46995.50;;;-142.92;100.00
56456;BME280;42354;53.218;6.564;2023-05-25T02:53:08;46985.22;;;-142.92;100.00
56456;BME280;42354;53.218;6.564;2023-05-25T02:55:33;46991.38;;;-142.92;100.00
56456;BME280;42354;53.218;6.564;2023-05-25T02:57:59;46981.13;;;-142.92;100.00
56456;BME280;42354;53.218;6.564;2023-05-25T03:00:25;46993.44;;;-142.92;100.00
56456;BME280;42354;53.218;6.564;2023-05-25T03:02:50;47003.69;;;-142.92;100.00
56456;BME280;42354;53.218;6.564;2023-05-25T03:05:16;46987.28;;;-142.92;100.00
56456;BME280;42354;53.218;6.564;2023-05-25T03:07:41;46987.28;;;-142.92;100.00
56456;BME280;42354;53.218;6.564;2023-05-25T03:10:08;46981.13;;;-142.92;100.00
56456;BME280;42354;53.218;6.564;2023-05-25T03:12:34;46979.06;;;-142.92;100.00
56456;BME280;42354;53.218;6.564;2023-05-25T03:14:59;46987.28;;;-142.92;100.00
56456;BME280;42354;53.218;6.564;2023-05-25T03:17:24;46987.28;;;-142.92;100.00
56456;BME280;42354;53.218;6.564;2023-05-25T03:19:50;47001.66;;;-142.92;100.00
56456;BME280;42354;53.218;6.564;2023-05-25T03:22:16;46972.91;;;-142.92;100.00
56456;BME280;42354;53.218;6.564;2023-05-25T03:24:41;46974.97;;;-142.92;100.00
56456;BME280;42354;53.218;6.564;2023-05-25T03:27:07;46987.28;;;-142.92;100.00
56456;BME280;42354;53.218;6.564;2023-05-25T03:29:33;47003.69;;;-142.92;100.00
56456;BME280;42354;53.218;6.564;2023-05-25T03:31:58;46970.88;;;-142.92;100.00
56456;BME280;42354;53.218;6.564;2023-05-25T03:34:24;46981.13;;;-142.92;100.00
56456;BME280;42354;53.218;6.564;2023-05-25T03:36:50;46977.03;;;-142.92;100.00
56456;BME280;42354;53.218;6.564;2023-05-25T03:39:18;46983.19;;;-142.92;100.00
56456;BME280;42354;53.218;6.564;2023-05-25T03:41:44;46981.13;;;-142.92;100.00
56456;BME280;42354;53.218;6.564;2023-05-25T03:44:09;46989.34;;;-142.92;100.00
56456;BME280;42354;53.218;6.564;2023-05-25T03:46:35;46987.28;;;-142.92;100.00
56456;BME280;42354;53.218;6.564;2023-05-25T03:49:00;46997.53;;;-142.92;100.00
56456;BME280;42354;53.218;6.564;2023-05-25T03:51:26;46979.06;;;-142.92;100.00
56456;BME280;42354;53.218;6.564;2023-05-25T03:53:53;46966.75;;;-142.92;100.00
56456;BME280;42354;53.218;6.564;2023-05-25T03:56:18;46995.50;;;-142.92;100.00
56456;BME280;42354;53.218;6.564;2023-05-25T03:58:44;46989.34;;;-142.92;100.00
56456;BME280;42354;53.218;6.564;2023-05-25T04:01:09;46991.38;;;-142.92;100.00
56456;BME280;42354;53.218;6.564;2023-05-25T04:03:36;46977.03;;;-142.92;100.00
56456;BME280;42354;53.218;6.564;2023-05-25T04:06:01;46987.28;;;-142.92;100.00
56456;BME280;42354;53.218;6.564;2023-05-25T04:08:27;46970.88;;;-142.92;100.00
56456;BME280;42354;53.218;6.564;2023-05-25T04:10:53;46991.38;;;-142.92;100.00
56456;BME280;42354;53.218;6.564;2023-05-25T04:13:18;47001.66;;;-142.92;100.00
56456;BME280;42354;53.218;6.564;2023-05-25T04:15:43;46974.97;;;-142.92;100.00
56456;BME280;42354;53.218;6.564;2023-05-25T04:18:09;47007.81;;;-142.92;100.00
56456;BME280;42354;53.218;6.564;2023-05-25T04:20:34;46981.13;;;-142.92;100.00
56456;BME280;42354;53.218;6.564;2023-05-25T04:23:00;46974.97;;;-142.92;100.00
56456;BME280;42354;53.218;6.564;2023-05-25T04:25:25;46983.19;;;-142.92;100.00
56456;BME280;42354;53.218;6.564;2023-05-25T04:27:51;47013.97;;;-142.92;100.00
56456;BME280;42354;53.218;6.564;2023-05-25T04:30:17;46993.44;;;-142.92;100.00
56456;BME280;42354;53.218;6.564;2023-05-25T04:32:43;46999.59;;;-142.92;100.00
56456;BME280;42354;53.218;6.564;2023-05-25T04:35:10;46981.13;;;-142.92;100.00
56456;BME280;42354;53.218;6.564;2023-05-25T04:37:35;47007.81;;;-142.92;100.00
56456;BME280;42354;53.218;6.564;2023-05-25T04:40:01;46991.38;;;-142.92;100.00
56456;BME280;42354;53.218;6.564;2023-05-25T04:42:30;47005.75;;;-142.92;100.00
56456;BME280;42354;53.218;6.564;2023-05-25T04:44:56;47007.81;;;-142.92;100.00
56456;BME280;42354;53.218;6.564;2023-05-25T04:47:23;46989.34;;;-142.92;100.00
56456;BME280;42354;53.218;6.564;2023-05-25T04:49:49;46997.53;;;-142.92;100.00
56456;BME280;42354;53.218;6.564;2023-05-25T04:52:14;46985.22;;;-142.92;100.00
56456;BME280;42354;53.218;6.564;2023-05-25T04:54:39;46999.59;;;-142.92;100.00
56456;BME280;42354;53.218;6.564;2023-05-25T04:57:06;46991.38;;;-142.92;100.00
56456;BME280;42354;53.218;6.564;2023-05-25T04:59:31;47007.81;;;-142.92;100.00
56456;BME280;42354;53.218;6.564;2023-05-25T05:01:56;46989.34;;;-142.92;100.00
56456;BME280;42354;53.218;6.564;2023-05-25T05:04:22;46983.19;;;-142.92;100.00
56456;BME280;42354;53.218;6.564;2023-05-25T05:06:47;46989.34;;;-142.92;100.00
56456;BME280;42354;53.218;6.564;2023-05-25T05:09:13;46995.50;;;-142.92;100.00
56456;BME280;42354;53.218;6.564;2023-05-25T05:11:38;47005.75;;;-142.92;100.00
56456;BME280;42354;53.218;6.564;2023-05-25T05:14:04;46997.53;;;-142.92;100.00
56456;BME280;42354;53.218;6.564;2023-05-25T05:16:30;46985.22;;;-142.92;100.00
56456;BME280;42354;53.218;6.564;2023-05-25T05:18:59;46979.06;;;-142.92;100.00
56456;BME280;42354;53.218;6.564;2023-05-25T05:21:25;47003.69;;;-142.92;100.00
56456;BME280;42354;53.218;6.564;2023-05-25T05:23:51;46977.03;;;-142.92;100.00
56456;BME280;42354;53.218;6.564;2023-05-25T05:26:16;46983.19;;;-142.92;100.00
56456;BME280;42354;53.218;6.564;2023-05-25T05:28:42;46983.19;;;-142.92;100.00
56456;BME280;42354;53.218;6.564;2023-05-25T05:31:08;46995.50;;;-142.92;100.00
56456;BME280;42354;53.218;6.564;2023-05-25T05:33:34;47003.69;;;-142.92;100.00
56456;BME280;42354;53.218;6.564;2023-05-25T05:35:59;46983.19;;;-142.92;100.00
56456;BME280;42354;53.218;6.564;2023-05-25T05:38:26;46983.19;;;-142.92;100.00
56456;BME280;42354;53.218;6.564;2023-05-25T05:40:52;46974.97;;;-142.92;100.00
56456;BME280;42354;53.218;6.564;2023-05-25T05:43:17;46983.19;;;-142.92;100.00
56456;BME280;42354;53.218;6.564;2023-05-25T05:45:42;46983.19;;;-142.92;100.00
56456;BME280;42354;53.218;6.564;2023-05-25T05:48:08;46991.38;;;-142.92;100.00
56456;BME280;42354;53.218;6.564;2023-05-25T05:50:37;46987.28;;;-142.92;100.00
56456;BME280;42354;53.218;6.564;2023-05-25T05:53:03;47007.81;;;-142.92;100.00
56456;BME280;42354;53.218;6.564;2023-05-25T05:55:28;46991.38;;;-142.92;100.00
56456;BME280;42354;53.218;6.564;2023-05-25T05:57:54;46989.34;;;-142.92;100.00
56456;BME280;42354;53.218;6.564;2023-05-25T06:00:19;46991.38;;;-142.92;100.00
56456;BME280;42354;53.218;6.564;2023-05-25T06:02:45;47003.69;;;-142.92;100.00
56456;BME280;42354;53.218;6.564;2023-05-25T06:05:10;46989.34;;;-142.92;98.72
56456;BME280;42354;53.218;6.564;2023-05-25T06:07:36;46987.28;;;-142.92;96.58
56456;BME280;42354;53.218;6.564;2023-05-25T06:10:03;46999.59;;;-142.92;94.66
56456;BME280;42354;53.218;6.564;2023-05-25T06:12:28;46987.28;;;-142.92;93.82
56456;BME280;42354;53.218;6.564;2023-05-25T06:14:54;46993.44;;;-142.92;92.55
56456;BME280;42354;53.218;6.564;2023-05-25T06:17:20;46999.59;;;-142.92;91.10
56456;BME280;42354;53.218;6.564;2023-05-25T06:19:46;46995.50;;;-142.92;89.72
56456;BME280;42354;53.218;6.564;2023-05-25T06:22:13;46997.53;;;-142.92;88.42
56456;BME280;42354;53.218;6.564;2023-05-25T06:24:38;46983.19;;;-142.92;87.39
56456;BME280;42354;53.218;6.564;2023-05-25T06:27:04;46995.50;;;-142.92;87.23
56456;BME280;42354;53.218;6.564;2023-05-25T06:29:29;46997.53;;;-142.92;86.23
56456;BME280;42354;53.218;6.564;2023-05-25T06:31:55;46987.28;;;-142.92;86.05
56456;BME280;42354;53.218;6.564;2023-05-25T06:34:21;47003.69;;;-142.92;85.31
56456;BME280;42354;53.218;6.564;2023-05-25T06:36:46;46981.13;;;-142.92;84.26
56456;BME280;42354;53.218;6.564;2023-05-25T06:39:12;46985.22;;;-142.92;83.38
56456;BME280;42354;53.218;6.564;2023-05-25T06:41:38;46977.03;;;-142.92;82.48
56456;BME280;42354;53.218;6.564;2023-05-25T06:44:05;46974.97;;;-142.92;81.46
56456;BME280;42354;53.218;6.564;2023-05-25T06:46:30;46995.50;;;-142.92;81.03
56456;BME280;42354;53.218;6.564;2023-05-25T06:48:58;47005.75;;;-142.92;79.52
56456;BME280;42354;53.218;6.564;2023-05-25T06:51:24;46989.34;;;-142.92;78.96
56456;BME280;42354;53.218;6.564;2023-05-25T06:53:52;46979.06;;;-142.92;77.18
56456;BME280;42354;53.218;6.564;2023-05-25T06:56:17;46989.34;;;-142.92;76.06
56456;BME280;42354;53.218;6.564;2023-05-25T06:58:42;46991.38;;;-142.92;74.83
56456;BME280;42354;53.218;6.564;2023-05-25T07:01:08;46995.50;;;-142.92;72.56
56456;BME280;42354;53.218;6.564;2023-05-25T07:03:33;46985.22;;;-142.92;72.54
56456;BME280;42354;53.218;6.564;2023-05-25T07:05:58;46999.59;;;-142.92;72.14
56456;BME280;42354;53.218;6.564;2023-05-25T07:08:24;46979.06;;;-142.92;71.14
56456;BME280;42354;53.218;6.564;2023-05-25T07:10:49;46991.38;;;-142.92;70.22
56456;BME280;42354;53.218;6.564;2023-05-25T07:13:16;46979.06;;;-142.92;69.32
56456;BME280;42354;53.218;6.564;2023-05-25T07:15:41;46989.34;;;-142.92;68.26
56456;BME280;42354;53.218;6.564;2023-05-25T07:18:06;46977.03;;;-142.92;68.40
56456;BME280;42354;53.218;6.564;2023-05-25T07:20:35;46987.28;;;-142.92;66.86
56456;BME280;42354;53.218;6.564;2023-05-25T07:23:02;46983.19;;;-142.92;65.69
56456;BME280;42354;53.218;6.564;2023-05-25T07:25:27;46995.50;;;-142.92;64.37
56456;BME280;42354;53.218;6.564;2023-05-25T07:27:52;46983.19;;;-142.92;62.44
56456;BME280;42354;53.218;6.564;2023-05-25T07:30:19;46985.22;;;-142.92;62.64
56456;BME280;42354;53.218;6.564;2023-05-25T07:32:45;46991.38;;;-142.92;61.61
56456;BME280;42354;53.218;6.564;2023-05-25T07:35:10;46979.06;;;-142.92;60.78
56456;BME280;42354;53.218;6.564;2023-05-25T07:37:35;46987.28;;;-142.92;59.72
56456;BME280;42354;53.218;6.564;2023-05-25T07:40:01;46991.38;;;-142.92;59.21
56456;BME280;42354;53.218;6.564;2023-05-25T07:42:26;46985.22;;;-142.92;58.70
56456;BME280;42354;53.218;6.564;2023-05-25T07:44:58;46974.97;;;-142.92;57.40
56456;BME280;42354;53.218;6.564;2023-05-25T07:47:23;46983.19;;;-142.92;56.47
56456;BME280;42354;53.218;6.564;2023-05-25T07:49:48;46985.22;;;-142.92;57.16
56456;BME280;42354;53.218;6.564;2023-05-25T07:52:14;46987.28;;;-142.92;57.16
56456;BME280;42354;53.218;6.564;2023-05-25T07:54:39;46979.06;;;-142.92;59.83
56456;BME280;42354;53.218;6.564;2023-05-25T07:57:05;46977.03;;;-142.92;59.76
56456;BME280;42354;53.218;6.564;2023-05-25T07:59:31;46993.44;;;-142.92;57.04
56456;BME280;42354;53.218;6.564;2023-05-25T08:01:56;47003.69;;;-142.92;56.19
56456;BME280;42354;53.218;6.564;2023-05-25T08:04:21;46995.50;;;-142.92;55.79
56456;BME280;42354;53.218;6.564;2023-05-25T08:06:47;46970.88;;;-142.92;56.06
56456;BME280;42354;53.218;6.564;2023-05-25T08:09:12;46970.88;;;-142.92;53.93
56456;BME280;42354;53.218;6.564;2023-05-25T08:11:38;46989.34;;;-142.92;53.45
56456;BME280;42354;53.218;6.564;2023-05-25T08:14:04;46985.22;;;-142.92;51.81
56456;BME280;42354;53.218;6.564;2023-05-25T08:16:29;46979.06;;;-142.92;53.46
56456;BME280;42354;53.218;6.564;2023-05-25T08:18:55;46983.19;;;-142.92;55.36
56456;BME280;42354;53.218;6.564;2023-05-25T08:21:20;46983.19;;;-142.92;57.12
56456;BME280;42354;53.218;6.564;2023-05-25T08:23:46;46981.13;;;-142.92;57.61
56456;BME280;42354;53.218;6.564;2023-05-25T08:26:12;46985.22;;;-142.92;57.68
56456;BME280;42354;53.218;6.564;2023-05-25T08:28:37;47001.66;;;-142.92;58.35
56456;BME280;42354;53.218;6.564;2023-05-25T08:31:03;46968.81;;;-142.92;57.11
56456;BME280;42354;53.218;6.564;2023-05-25T08:33:29;46970.88;;;-142.92;54.57
56456;BME280;42354;53.218;6.564;2023-05-25T08:35:54;46991.38;;;-142.92;52.26
56456;BME280;42354;53.218;6.564;2023-05-25T08:38:20;46983.19;;;-142.92;49.73
56456;BME280;42354;53.218;6.564;2023-05-25T08:41:02;46995.50;;;-142.92;48.71
56456;BME280;42354;53.218;6.564;2023-05-25T08:43:28;46989.34;;;-142.92;49.14
56456;BME280;42354;53.218;6.564;2023-05-25T08:45:58;46999.59;;;-142.92;48.00
56456;BME280;42354;53.218;6.564;2023-05-25T08:48:28;46995.50;;;-142.92;49.20
56456;BME280;42354;53.218;6.564;2023-05-25T08:50:57;46983.19;;;-142.92;49.00
56456;BME280;42354;53.218;6.564;2023-05-25T08:53:23;46979.06;;;-142.92;49.23
56456;BME280;42354;53.218;6.564;2023-05-25T08:55:52;46987.28;;;-142.92;48.69
56456;BME280;42354;53.218;6.564;2023-05-25T08:58:19;46981.13;;;-142.92;48.30
56456;BME280;42354;53.218;6.564;2023-05-25T09:00:57;46981.13;;;-142.92;48.04
56456;BME280;42354;53.218;6.564;2023-05-25T09:03:24;46987.28;;;-142.92;50.01
56456;BME280;42354;53.218;6.564;2023-05-25T09:05:50;46968.81;;;-142.92;48.85
56456;BME280;42354;53.218;6.564;2023-05-25T09:08:16;46989.34;;;-142.92;48.79
56456;BME280;42354;53.218;6.564;2023-05-25T09:10:41;46987.28;;;-142.92;48.72
56456;BME280;42354;53.218;6.564;2023-05-25T09:13:07;46981.13;;;-142.92;47.20
56456;BME280;42354;53.218;6.564;2023-05-25T09:15:33;46995.50;;;-142.92;45.88
56456;BME280;42354;53.218;6.564;2023-05-25T09:18:00;46983.19;;;-142.92;46.32
56456;BME280;42354;53.218;6.564;2023-05-25T09:20:26;46981.13;;;-142.92;47.34
56456;BME280;42354;53.218;6.564;2023-05-25T09:22:58;46991.38;;;-142.92;46.18
56456;BME280;42354;53.218;6.564;2023-05-25T09:25:28;46985.22;;;-142.92;46.16
56456;BME280;42354;53.218;6.564;2023-05-25T09:27:54;46991.38;;;-142.92;46.75
56456;BME280;42354;53.218;6.564;2023-05-25T09:30:22;46981.13;;;-142.92;46.65
56456;BME280;42354;53.218;6.564;2023-05-25T09:32:47;46997.53;;;-142.92;45.89
56456;BME280;42354;53.218;6.564;2023-05-25T09:35:13;46995.50;;;-142.92;45.83
56456;BME280;42354;53.218;6.564;2023-05-25T09:37:40;46970.88;;;-142.92;46.22
56456;BME280;42354;53.218;6.564;2023-05-25T09:40:07;46968.81;;;-142.92;46.64
56456;BME280;42354;53.218;6.564;2023-05-25T09:42:33;46964.72;;;-142.92;47.59
56456;BME280;42354;53.218;6.564;2023-05-25T09:45:00;46989.34;;;-142.92;46.39
56456;BME280;42354;53.218;6.564;2023-05-25T09:47:28;46983.19;;;-142.92;46.59
56456;BME280;42354;53.218;6.564;2023-05-25T09:49:57;46977.03;;;-142.92;48.75
56456;BME280;42354;53.218;6.564;2023-05-25T09:52:24;46977.03;;;-142.92;50.39
56456;BME280;42354;53.218;6.564;2023-05-25T09:54:50;46970.88;;;-142.92;49.75
56456;BME280;42354;53.218;6.564;2023-05-25T09:57:17;46991.38;;;-142.92;48.57
56456;BME280;42354;53.218;6.564;2023-05-25T09:59:44;46966.75;;;-142.92;48.62
56456;BME280;42354;53.218;6.564;2023-05-25T10:02:10;46983.19;;;-142.92;47.96
56456;BME280;42354;53.218;6.564;2023-05-25T10:04:35;46968.81;;;-142.92;47.44
56456;BME280;42354;53.218;6.564;2023-05-25T10:07:03;46981.13;;;-142.92;47.02
56456;BME280;42354;53.218;6.564;2023-05-25T10:09:29;46985.22;;;-142.92;46.82
56456;BME280;42354;53.218;6.564;2023-05-25T10:11:56;46958.56;;;-142.92;46.98
56456;BME280;42354;53.218;6.564;2023-05-25T10:14:25;46987.28;;;-142.92;45.52
56456;BME280;42354;53.218;6.564;2023-05-25T10:16:53;46979.06;;;-142.92;46.00
56456;BME280;42354;53.218;6.564;2023-05-25T10:19:24;46974.97;;;-142.92;46.37
56456;BME280;42354;53.218;6.564;2023-05-25T10:22:19;46979.06;;;-142.92;47.47
56456;BME280;42354;53.218;6.564;2023-05-25T10:24:55;46991.38;;;-142.92;48.05
56456;BME280;42354;53.218;6.564;2023-05-25T10:27:28;46972.91;;;-142.92;47.89
56456;BME280;42354;53.218;6.564;2023-05-25T10:29:58;46981.13;;;-142.92;46.86
56456;BME280;42354;53.218;6.564;2023-05-25T10:32:27;46989.34;;;-142.92;46.03
56456;BME280;42354;53.218;6.564;2023-05-25T10:34:52;46968.81;;;-142.92;46.44
56456;BME280;42354;53.218;6.564;2023-05-25T10:37:19;46974.97;;;-142.92;46.60
56456;BME280;42354;53.218;6.564;2023-05-25T10:39:48;46985.22;;;-142.92;45.10
56456;BME280;42354;53.218;6.564;2023-05-25T10:42:16;46979.06;;;-142.92;43.89
56456;BME280;42354;53.218;6.564;2023-05-25T10:44:42;46981.13;;;-142.92;43.09
56456;BME280;42354;53.218;6.564;2023-05-25T10:47:09;46987.28;;;-142.92;41.28
56456;BME280;42354;53.218;6.564;2023-05-25T10:49:53;47003.69;;;-142.92;39.42
56456;BME280;42354;53.218;6.564;2023-05-25T10:52:19;46974.97;;;-142.92;39.74
56456;BME280;42354;53.218;6.564;2023-05-25T10:54:46;46966.75;;;-142.92;40.20
56456;BME280;42354;53.218;6.564;2023-05-25T10:57:17;46985.22;;;-142.92;40.65
56456;BME280;42354;53.218;6.564;2023-05-25T10:59:47;46970.88;;;-142.92;40.83
56456;BME280;42354;53.218;6.564;2023-05-25T11:02:14;46981.13;;;-142.92;40.45
56456;BME280;42354;53.218;6.564;2023-05-25T11:04:39;46987.28;;;-142.92;40.74
56456;BME280;42354;53.218;6.564;2023-05-25T11:07:06;46972.91;;;-142.92;41.29
56456;BME280;42354;53.218;6.564;2023-05-25T11:09:32;46970.88;;;-142.92;40.65
56456;BME280;42354;53.218;6.564;2023-05-25T11:12:03;46991.38;;;-142.92;40.71
56456;BME280;42354;53.218;6.564;2023-05-25T11:14:31;46977.03;;;-142.92;40.01
56456;BME280;42354;53.218;6.564;2023-05-25T11:17:06;46983.19;;;-142.92;39.47
56456;BME280;42354;53.218;6.564;2023-05-25T11:19:50;46972.91;;;-142.92;40.35
56456;BME280;42354;53.218;6.564;2023-05-25T11:22:30;46987.28;;;-142.92;40.83
56456;BME280;42354;53.218;6.564;2023-05-25T11:24:58;46970.88;;;-142.92;41.68
56456;BME280;42354;53.218;6.564;2023-05-25T11:27:29;46977.03;;;-142.92;42.90
56456;BME280;42354;53.218;6.564;2023-05-25T11:29:57;46979.06;;;-142.92;43.68
56456;BME280;42354;53.218;6.564;2023-05-25T11:32:23;46974.97;;;-142.92;44.94
56456;BME280;42354;53.218;6.564;2023-05-25T11:34:51;46983.19;;;-142.92;45.20
56456;BME280;42354;53.218;6.564;2023-05-25T11:37:18;46979.06;;;-142.92;45.00
56456;BME280;42354;53.218;6.564;2023-05-25T11:39:50;46970.88;;;-142.92;45.38
56456;BME280;42354;53.218;6.564;2023-05-25T11:42:21;46970.88;;;-142.92;45.69
56456;BME280;42354;53.218;6.564;2023-05-25T11:44:47;46985.22;;;-142.92;44.87
56456;BME280;42354;53.218;6.564;2023-05-25T11:47:14;46974.97;;;-142.92;44.12
56456;BME280;42354;53.218;6.564;2023-05-25T11:49:44;46985.22;;;-142.92;42.96
56456;BME280;42354;53.218;6.564;2023-05-25T11:52:12;46974.97;;;-142.92;42.36
56456;BME280;42354;53.218;6.564;2023-05-25T11:54:38;46985.22;;;-142.92;41.10
56456;BME280;42354;53.218;6.564;2023-05-25T11:57:19;46981.13;;;-142.92;40.21
56456;BME280;42354;53.218;6.564;2023-05-25T11:59:53;46979.06;;;-142.92;41.34
56456;BME280;42354;53.218;6.564;2023-05-25T12:02:20;46962.66;;;-142.92;42.36
56456;BME280;42354;53.218;6.564;2023-05-25T12:05:00;46977.03;;;-142.92;42.85
56456;BME280;42354;53.218;6.564;2023-05-25T12:07:28;46979.06;;;-142.92;42.75
56456;BME280;42354;53.218;6.564;2023-05-25T12:10:08;46962.66;;;-142.92;42.37
56456;BME280;42354;53.218;6.564;2023-05-25T12:15:10;46977.03;;;-142.92;41.42
56456;BME280;42354;53.218;6.564;2023-05-25T12:17:39;46974.97;;;-142.92;40.97
56456;BME280;42354;53.218;6.564;2023-05-25T12:20:06;46985.22;;;-142.92;40.85
56456;BME280;42354;53.218;6.564;2023-05-25T12:22:33;46977.03;;;-142.92;40.05
56456;BME280;42354;53.218;6.564;2023-05-25T12:24:59;46979.06;;;-142.92;40.19
56456;BME280;42354;53.218;6.564;2023-05-25T12:27:24;46970.88;;;-142.92;40.58
56456;BME280;42354;53.218;6.564;2023-05-25T12:29:50;46977.03;;;-142.92;40.86
56456;BME280;42354;53.218;6.564;2023-05-25T12:32:17;46983.19;;;-142.92;41.18
56456;BME280;42354;53.218;6.564;2023-05-25T12:34:43;46983.19;;;-142.92;41.55
56456;BME280;42354;53.218;6.564;2023-05-25T12:37:20;46991.38;;;-142.92;40.93
56456;BME280;42354;53.218;6.564;2023-05-25T12:39:46;46981.13;;;-142.92;40.68